sensor_id;sensor_type;location;lat;lon;timestamp;pressure;altitude;pressure_sealevel;temperature;humidity
10718;BME280;13513;42.700;23.124;2023-04-08T00:01:08;92963.41;;;5.52;83.52
10718;BME280;13513;42.700;23.124;2023-04-08T00:03:39;92956.02;;;5.58;84.01
10718;BME280;13513;42.700;23.124;2023-04-08T00:06:10;92955.88;;;5.62;83.76
10718;BME280;13513;42.700;23.124;2023-04-08T00:08:41;92960.16;;;5.57;82.97
10718;BME280;13513;42.700;23.124;2023-04-08T00:11:11;92955.49;;;5.59;82.49
10718;BME280;13513;42.700;23.124;2023-04-08T00:13:42;92955.95;;;5.65;82.01
10718;BME280;13513;42.700;23.124;2023-04-08T00:16:13;92955.95;;;5.65;82.01
10718;BME280;13513;42.700;23.124;2023-04-08T00:18:44;92956.80;;;5.59;81.53
10718;BME280;13513;42.700;23.124;2023-04-08T00:21:15;92958.80;;;5.39;82.04
10718;BME280;13513;42.700;23.124;2023-04-08T00:23:46;92947.33;;;5.40;82.18
10718;BME280;13513;42.700;23.124;2023-04-08T00:26:18;92942.58;;;5.39;81.91
10718;BME280;13513;42.700;23.124;2023-04-08T00:28:49;92949.48;;;5.43;82.00
10718;BME280;13513;42.700;23.124;2023-04-08T00:31:20;92952.50;;;5.46;82.13
10718;BME280;13513;42.700;23.124;2023-04-08T00:33:51;92948.64;;;5.49;82.16
10718;BME280;13513;42.700;23.124;2023-04-08T00:36:22;92950.80;;;5.43;83.09
10718;BME280;13513;42.700;23.124;2023-04-08T00:38:54;92936.85;;;5.49;83.45
10718;BME280;13513;42.700;23.124;2023-04-08T00:41:24;92948.87;;;5.56;83.62
10718;BME280;13513;42.700;23.124;2023-04-08T00:43:55;92950.78;;;5.58;82.97
10718;BME280;13513;42.700;23.124;2023-04-08T00:46:26;92956.73;;;5.56;83.81
10718;BME280;13513;42.700;23.124;2023-04-08T00:48:57;92952.65;;;5.51;83.70
10718;BME280;13513;42.700;23.124;2023-04-08T00:51:29;92945.95;;;5.46;84.13
10718;BME280;13513;42.700;23.124;2023-04-08T00:54:01;92948.78;;;5.45;84.42
10718;BME280;13513;42.700;23.124;2023-04-08T00:56:35;92950.10;;;5.54;83.62
10718;BME280;13513;42.700;23.124;2023-04-08T00:59:05;92948.87;;;5.56;82.27
10718;BME280;13513;42.700;23.124;2023-04-08T01:01:49;92954.91;;;5.48;82.29
10718;BME280;13513;42.700;23.124;2023-04-08T01:07:02;92957.21;;;5.47;82.70
10718;BME280;13513;42.700;23.124;2023-04-08T01:09:34;92954.08;;;5.38;82.71
10718;BME280;13513;42.700;23.124;2023-04-08T01:12:09;92957.55;;;5.32;82.86
10718;BME280;13513;42.700;23.124;2023-04-08T01:14:41;92960.97;;;5.33;82.13
10718;BME280;13513;42.700;23.124;2023-04-08T01:17:10;92960.97;;;5.33;82.13
10718;BME280;13513;42.700;23.124;2023-04-08T01:19:41;92961.53;;;5.26;81.86
10718;BME280;13513;42.700;23.124;2023-04-08T01:23:12;92958.67;;;5.03;83.28
10718;BME280;13513;42.700;23.124;2023-04-08T01:25:04;92966.13;;;4.99;84.86
10718;BME280;13513;42.700;23.124;2023-04-08T01:27:35;92966.26;;;4.95;85.40
10718;BME280;13513;42.700;23.124;2023-04-08T01:30:09;92964.79;;;4.90;84.88
10718;BME280;13513;42.700;23.124;2023-04-08T01:32:41;92956.44;;;4.91;85.77
10718;BME280;13513;42.700;23.124;2023-04-08T01:35:14;92963.77;;;4.91;86.66
10718;BME280;13513;42.700;23.124;2023-04-08T01:37:46;92964.80;;;5.06;85.96
10718;BME280;13513;42.700;23.124;2023-04-08T01:40:18;92958.06;;;5.01;85.90
10718;BME280;13513;42.700;23.124;2023-04-08T01:42:50;92962.20;;;4.99;85.79
10718;BME280;13513;42.700;23.124;2023-04-08T01:45:22;92968.73;;;5.06;86.41
10718;BME280;13513;42.700;23.124;2023-04-08T01:47:53;92968.73;;;5.06;86.41
10718;BME280;13513;42.700;23.124;2023-04-08T01:50:27;92965.85;;;5.14;86.44
10718;BME280;13513;42.700;23.124;2023-04-08T01:52:59;92970.83;;;5.22;86.89
10718;BME280;13513;42.700;23.124;2023-04-08T01:55:31;92972.00;;;5.26;86.94
10718;BME280;13513;42.700;23.124;2023-04-08T01:58:02;92980.23;;;5.29;87.11
10718;BME280;13513;42.700;23.124;2023-04-08T02:00:36;92985.26;;;5.31;86.82
10718;BME280;13513;42.700;23.124;2023-04-08T02:03:08;92985.55;;;5.32;87.45
10718;BME280;13513;42.700;23.124;2023-04-08T02:05:41;92992.80;;;5.21;87.39
10718;BME280;13513;42.700;23.124;2023-04-08T02:08:12;92995.45;;;5.30;87.33
10718;BME280;13513;42.700;23.124;2023-04-08T02:10:42;92992.09;;;5.32;87.49
10718;BME280;13513;42.700;23.124;2023-04-08T02:13:12;92992.09;;;5.32;87.49
10718;BME280;13513;42.700;23.124;2023-04-08T02:15:50;92994.00;;;5.34;85.76
10718;BME280;13513;42.700;23.124;2023-04-08T02:18:24;92997.94;;;5.34;85.67
10718;BME280;13513;42.700;23.124;2023-04-08T02:20:53;92993.66;;;5.39;85.38
10718;BME280;13513;42.700;23.124;2023-04-08T02:23:24;92999.40;;;5.39;85.76
10718;BME280;13513;42.700;23.124;2023-04-08T02:25:58;92996.78;;;5.39;85.67
10718;BME280;13513;42.700;23.124;2023-04-08T02:28:30;92990.23;;;5.39;85.99
10718;BME280;13513;42.700;23.124;2023-04-08T02:31:02;92990.23;;;5.39;85.99
10718;BME280;13513;42.700;23.124;2023-04-08T02:33:35;92993.95;;;5.40;85.97
10718;BME280;13513;42.700;23.124;2023-04-08T02:36:10;92995.66;;;5.44;85.05
10718;BME280;13513;42.700;23.124;2023-04-08T02:38:40;92996.30;;;5.48;83.90
10718;BME280;13513;42.700;23.124;2023-04-08T02:41:11;92997.19;;;5.51;83.94
10718;BME280;13513;42.700;23.124;2023-04-08T02:43:42;92994.23;;;5.57;83.52
10718;BME280;13513;42.700;23.124;2023-04-08T02:46:13;92995.75;;;5.55;83.34
10718;BME280;13513;42.700;23.124;2023-04-08T02:48:44;92997.90;;;5.49;82.96
10718;BME280;13513;42.700;23.124;2023-04-08T02:51:15;92987.42;;;5.49;83.39
10718;BME280;13513;42.700;23.124;2023-04-08T02:53:46;92985.53;;;5.47;86.22
10718;BME280;13513;42.700;23.124;2023-04-08T02:56:17;92985.53;;;5.47;86.22
10718;BME280;13513;42.700;23.124;2023-04-08T02:58:47;92982.84;;;5.45;86.83
10718;BME280;13513;42.700;23.124;2023-04-08T03:01:20;92986.03;;;5.47;87.14
10718;BME280;13513;42.700;23.124;2023-04-08T03:03:53;92980.09;;;5.49;86.64
10718;BME280;13513;42.700;23.124;2023-04-08T03:06:26;92968.72;;;5.46;86.29
10718;BME280;13513;42.700;23.124;2023-04-08T03:08:57;92977.97;;;5.48;84.46
10718;BME280;13513;42.700;23.124;2023-04-08T03:11:27;92982.99;;;5.50;84.21
10718;BME280;13513;42.700;23.124;2023-04-08T03:13:57;92982.99;;;5.50;84.21
10718;BME280;13513;42.700;23.124;2023-04-08T03:16:28;92978.98;;;5.47;84.60
10718;BME280;13513;42.700;23.124;2023-04-08T03:18:59;92982.08;;;5.53;85.71
10718;BME280;13513;42.700;23.124;2023-04-08T03:21:31;92981.05;;;5.54;85.82
10718;BME280;13513;42.700;23.124;2023-04-08T03:24:01;92978.92;;;5.54;86.17
10718;BME280;13513;42.700;23.124;2023-04-08T03:26:32;92974.86;;;5.58;85.54
10718;BME280;13513;42.700;23.124;2023-04-08T03:29:03;92974.86;;;5.58;85.54
10718;BME280;13513;42.700;23.124;2023-04-08T03:31:34;92978.79;;;5.58;85.68
10718;BME280;13513;42.700;23.124;2023-04-08T03:34:05;92978.56;;;5.50;84.50
10718;BME280;13513;42.700;23.124;2023-04-08T03:36:34;92978.56;;;5.50;84.50
10718;BME280;13513;42.700;23.124;2023-04-08T03:39:05;92983.41;;;5.47;83.92
10718;BME280;13513;42.700;23.124;2023-04-08T03:41:35;92987.41;;;5.40;84.84
10718;BME280;13513;42.700;23.124;2023-04-08T03:44:05;92987.12;;;5.24;87.18
10718;BME280;13513;42.700;23.124;2023-04-08T03:46:35;92987.98;;;5.18;87.40
10718;BME280;13513;42.700;23.124;2023-04-08T03:49:06;92986.06;;;5.16;87.76
10718;BME280;13513;42.700;23.124;2023-04-08T03:51:38;92986.06;;;5.16;87.76
10718;BME280;13513;42.700;23.124;2023-04-08T03:54:10;92983.77;;;5.17;87.92
10718;BME280;13513;42.700;23.124;2023-04-08T03:56:41;92989.99;;;5.16;87.88
10718;BME280;13513;42.700;23.124;2023-04-08T03:59:12;92989.58;;;5.19;87.00
10718;BME280;13513;42.700;23.124;2023-04-08T04:01:42;92992.17;;;5.10;87.55
10718;BME280;13513;42.700;23.124;2023-04-08T04:04:13;92992.87;;;5.08;88.76
10718;BME280;13513;42.700;23.124;2023-04-08T04:06:44;92985.43;;;5.05;89.07
10718;BME280;13513;42.700;23.124;2023-04-08T04:09:15;92985.43;;;5.05;89.07
10718;BME280;13513;42.700;23.124;2023-04-08T04:11:46;92992.66;;;5.09;89.29
10718;BME280;13513;42.700;23.124;2023-04-08T04:14:18;92992.33;;;5.15;89.24
10718;BME280;13513;42.700;23.124;2023-04-08T04:16:49;92993.71;;;5.17;89.21
10718;BME280;13513;42.700;23.124;2023-04-08T04:19:19;93001.97;;;5.21;89.05
10718;BME280;13513;42.700;23.124;2023-04-08T04:21:50;93004.53;;;5.27;89.81
10718;BME280;13513;42.700;23.124;2023-04-08T04:24:21;93004.41;;;5.31;90.02
10718;BME280;13513;42.700;23.124;2023-04-08T04:26:51;93000.55;;;5.34;89.50
10718;BME280;13513;42.700;23.124;2023-04-08T04:29:22;93005.16;;;5.38;89.70
10718;BME280;13513;42.700;23.124;2023-04-08T04:31:53;93004.50;;;5.43;87.99
10718;BME280;13513;42.700;23.124;2023-04-08T04:34:24;93004.50;;;5.43;87.99
10718;BME280;13513;42.700;23.124;2023-04-08T04:36:54;93011.58;;;5.42;88.69
10718;BME280;13513;42.700;23.124;2023-04-08T04:39:25;93003.27;;;5.45;88.44
10718;BME280;13513;42.700;23.124;2023-04-08T04:41:55;93001.25;;;5.47;88.34
10718;BME280;13513;42.700;23.124;2023-04-08T04:44:27;93006.02;;;5.57;87.45
10718;BME280;13513;42.700;23.124;2023-04-08T04:46:58;93006.02;;;5.57;87.45
10718;BME280;13513;42.700;23.124;2023-04-08T04:49:30;93005.14;;;5.63;87.25
10718;BME280;13513;42.700;23.124;2023-04-08T04:52:05;93007.39;;;5.75;85.50
10718;BME280;13513;42.700;23.124;2023-04-08T04:54:35;93007.39;;;5.75;85.50
10718;BME280;13513;42.700;23.124;2023-04-08T04:57:06;93003.78;;;5.85;84.38
10718;BME280;13513;42.700;23.124;2023-04-08T04:59:37;93004.11;;;5.95;85.20
10718;BME280;13513;42.700;23.124;2023-04-08T05:02:08;93011.33;;;6.08;84.34
10718;BME280;13513;42.700;23.124;2023-04-08T05:04:39;93004.85;;;6.11;85.71
10718;BME280;13513;42.700;23.124;2023-04-08T05:07:09;93006.53;;;6.32;83.09
10718;BME280;13513;42.700;23.124;2023-04-08T05:09:40;93006.53;;;6.32;83.09
10718;BME280;13513;42.700;23.124;2023-04-08T05:12:11;93010.12;;;6.56;79.76
10718;BME280;13513;42.700;23.124;2023-04-08T05:14:42;93010.12;;;6.56;79.76
10718;BME280;13513;42.700;23.124;2023-04-08T05:17:12;93009.22;;;6.62;78.40
10718;BME280;13513;42.700;23.124;2023-04-08T05:19:43;93003.17;;;6.70;78.76
10718;BME280;13513;42.700;23.124;2023-04-08T05:22:14;93007.17;;;6.73;79.28
10718;BME280;13513;42.700;23.124;2023-04-08T05:24:44;93004.67;;;6.78;78.91
10718;BME280;13513;42.700;23.124;2023-04-08T05:27:15;93008.91;;;6.88;78.07
10718;BME280;13513;42.700;23.124;2023-04-08T05:29:46;93007.19;;;7.11;76.45
10718;BME280;13513;42.700;23.124;2023-04-08T05:32:17;93005.67;;;7.24;76.13
10718;BME280;13513;42.700;23.124;2023-04-08T05:34:50;93007.09;;;7.09;75.77
10718;BME280;13513;42.700;23.124;2023-04-08T05:37:22;93013.22;;;7.21;74.31
10718;BME280;13513;42.700;23.124;2023-04-08T05:39:52;93014.35;;;7.45;72.03
10718;BME280;13513;42.700;23.124;2023-04-08T05:42:23;93011.34;;;7.51;70.12
10718;BME280;13513;42.700;23.124;2023-04-08T05:44:54;93012.80;;;7.67;70.40
10718;BME280;13513;42.700;23.124;2023-04-08T05:47:24;93006.59;;;7.71;71.28
10718;BME280;13513;42.700;23.124;2023-04-08T05:49:55;93008.36;;;7.68;68.87
10718;BME280;13513;42.700;23.124;2023-04-08T05:52:26;93010.78;;;7.60;68.77
10718;BME280;13513;42.700;23.124;2023-04-08T05:54:57;93012.86;;;7.58;69.52
10718;BME280;13513;42.700;23.124;2023-04-08T05:57:28;93010.94;;;7.45;70.75
10718;BME280;13513;42.700;23.124;2023-04-08T05:59:59;93008.20;;;7.31;69.70
10718;BME280;13513;42.700;23.124;2023-04-08T06:02:31;93010.49;;;7.27;71.05
10718;BME280;13513;42.700;23.124;2023-04-08T06:05:02;93007.88;;;7.39;71.67
10718;BME280;13513;42.700;23.124;2023-04-08T06:07:33;93006.95;;;7.54;71.73
10718;BME280;13513;42.700;23.124;2023-04-08T06:10:02;93001.98;;;7.87;69.63
10718;BME280;13513;42.700;23.124;2023-04-08T06:12:36;93000.14;;;8.10;69.63
10718;BME280;13513;42.700;23.124;2023-04-08T06:15:08;92996.56;;;8.37;69.51
10718;BME280;13513;42.700;23.124;2023-04-08T06:17:38;93004.48;;;8.63;68.71
10718;BME280;13513;42.700;23.124;2023-04-08T06:20:09;93002.75;;;8.68;67.05
10718;BME280;13513;42.700;23.124;2023-04-08T06:22:40;93000.35;;;8.55;65.21
10718;BME280;13513;42.700;23.124;2023-04-08T06:25:11;93005.07;;;8.53;64.63
10718;BME280;13513;42.700;23.124;2023-04-08T06:27:42;93005.09;;;8.30;66.29
10718;BME280;13513;42.700;23.124;2023-04-08T06:30:12;93007.81;;;8.00;67.16
10718;BME280;13513;42.700;23.124;2023-04-08T06:32:42;93005.81;;;7.93;68.04
10718;BME280;13513;42.700;23.124;2023-04-08T06:35:13;93012.66;;;7.94;68.59
10718;BME280;13513;42.700;23.124;2023-04-08T06:37:45;93007.34;;;8.03;67.62
10718;BME280;13513;42.700;23.124;2023-04-08T06:40:16;93006.09;;;8.17;69.76
10718;BME280;13513;42.700;23.124;2023-04-08T06:42:47;93003.11;;;8.02;67.88
10718;BME280;13513;42.700;23.124;2023-04-08T06:45:18;93005.56;;;7.83;71.14
10718;BME280;13513;42.700;23.124;2023-04-08T06:47:49;93012.32;;;8.02;68.46
10718;BME280;13513;42.700;23.124;2023-04-08T06:50:20;93012.66;;;7.94;71.25
10718;BME280;13513;42.700;23.124;2023-04-08T06:52:51;93015.75;;;8.23;68.48
10718;BME280;13513;42.700;23.124;2023-04-08T06:55:21;93017.63;;;8.37;69.02
10718;BME280;13513;42.700;23.124;2023-04-08T06:57:51;93013.16;;;8.26;68.58
10718;BME280;13513;42.700;23.124;2023-04-08T07:00:23;93011.91;;;8.28;71.24
10718;BME280;13513;42.700;23.124;2023-04-08T07:02:54;93007.95;;;8.28;71.28
10718;BME280;13513;42.700;23.124;2023-04-08T07:05:25;93020.91;;;8.44;69.72
10718;BME280;13513;42.700;23.124;2023-04-08T07:07:56;93015.09;;;8.30;69.27
10718;BME280;13513;42.700;23.124;2023-04-08T07:10:27;93019.84;;;8.31;69.94
10718;BME280;13513;42.700;23.124;2023-04-08T07:12:58;93024.59;;;8.43;71.38
10718;BME280;13513;42.700;23.124;2023-04-08T07:15:28;93022.09;;;8.74;69.38
10718;BME280;13513;42.700;23.124;2023-04-08T07:17:58;93031.50;;;8.84;68.60
10718;BME280;13513;42.700;23.124;2023-04-08T07:20:29;93028.21;;;9.02;66.94
10718;BME280;13513;42.700;23.124;2023-04-08T07:23:00;93034.37;;;8.82;66.50
10718;BME280;13513;42.700;23.124;2023-04-08T07:25:32;93035.30;;;8.51;69.23
10718;BME280;13513;42.700;23.124;2023-04-08T07:28:06;93036.41;;;8.78;66.03
10718;BME280;13513;42.700;23.124;2023-04-08T07:30:37;93036.22;;;8.82;67.33
10718;BME280;13513;42.700;23.124;2023-04-08T07:33:08;93038.22;;;9.03;66.04
10718;BME280;13513;42.700;23.124;2023-04-08T07:35:39;93038.30;;;9.08;64.71
10718;BME280;13513;42.700;23.124;2023-04-08T07:38:10;93035.93;;;9.06;65.87
10718;BME280;13513;42.700;23.124;2023-04-08T07:40:41;93037.49;;;8.79;67.15
10718;BME280;13513;42.700;23.124;2023-04-08T07:43:12;93045.30;;;8.51;68.67
10718;BME280;13513;42.700;23.124;2023-04-08T07:45:43;93042.40;;;9.01;69.32
10718;BME280;13513;42.700;23.124;2023-04-08T07:48:15;93047.53;;;8.94;67.60
10718;BME280;13513;42.700;23.124;2023-04-08T07:50:45;93049.81;;;8.90;68.87
10718;BME280;13513;42.700;23.124;2023-04-08T07:53:16;93055.45;;;8.45;66.71
10718;BME280;13513;42.700;23.124;2023-04-08T07:55:47;93059.45;;;8.48;67.39
10718;BME280;13513;42.700;23.124;2023-04-08T07:58:18;93065.69;;;8.33;69.27
10718;BME280;13513;42.700;23.124;2023-04-08T08:00:49;93063.34;;;8.13;70.33
10718;BME280;13513;42.700;23.124;2023-04-08T08:03:20;93053.97;;;8.17;72.94
10718;BME280;13513;42.700;23.124;2023-04-08T08:05:51;93048.27;;;8.08;76.30
10718;BME280;13513;42.700;23.124;2023-04-08T08:08:22;93049.69;;;8.13;78.93
10718;BME280;13513;42.700;23.124;2023-04-08T08:10:53;93050.69;;;8.21;79.53
10718;BME280;13513;42.700;23.124;2023-04-08T08:13:23;93057.52;;;8.32;76.49
10718;BME280;13513;42.700;23.124;2023-04-08T08:15:54;93061.41;;;8.52;73.67
10718;BME280;13513;42.700;23.124;2023-04-08T08:18:26;93056.35;;;8.39;74.61
10718;BME280;13513;42.700;23.124;2023-04-08T08:21:00;93053.90;;;8.84;72.93
10718;BME280;13513;42.700;23.124;2023-04-08T08:23:31;93060.78;;;9.24;68.29
10718;BME280;13513;42.700;23.124;2023-04-08T08:26:07;93068.02;;;9.87;62.85
10718;BME280;13513;42.700;23.124;2023-04-08T08:28:43;93074.05;;;9.85;62.61
10718;BME280;13513;42.700;23.124;2023-04-08T08:31:14;93080.87;;;9.98;60.92
10718;BME280;13513;42.700;23.124;2023-04-08T08:33:45;93077.42;;;9.67;64.41
10718;BME280;13513;42.700;23.124;2023-04-08T08:36:16;93069.27;;;9.99;62.87
10718;BME280;13513;42.700;23.124;2023-04-08T08:38:47;93065.86;;;10.31;60.18
10718;BME280;13513;42.700;23.124;2023-04-08T08:41:18;93072.06;;;10.75;58.82
10718;BME280;13513;42.700;23.124;2023-04-08T08:43:48;93063.31;;;11.12;57.21
10718;BME280;13513;42.700;23.124;2023-04-08T08:46:18;93061.77;;;11.38;55.58
10718;BME280;13513;42.700;23.124;2023-04-08T08:48:49;93057.64;;;11.25;56.12
10718;BME280;13513;42.700;23.124;2023-04-08T08:51:21;93062.88;;;12.19;56.00
10718;BME280;13513;42.700;23.124;2023-04-08T08:53:52;93062.59;;;12.47;54.19
10718;BME280;13513;42.700;23.124;2023-04-08T08:56:23;93062.60;;;12.89;53.05
10718;BME280;13513;42.700;23.124;2023-04-08T08:58:54;93065.86;;;12.59;51.86
10718;BME280;13513;42.700;23.124;2023-04-08T09:01:37;93065.36;;;12.28;51.35
10718;BME280;13513;42.700;23.124;2023-04-08T09:04:12;93065.80;;;11.91;52.85
10718;BME280;13513;42.700;23.124;2023-04-08T09:06:43;93068.33;;;11.57;53.67
10718;BME280;13513;42.700;23.124;2023-04-08T09:09:14;93067.44;;;11.25;55.20
10718;BME280;13513;42.700;23.124;2023-04-08T09:11:46;93066.66;;;11.70;54.54
10718;BME280;13513;42.700;23.124;2023-04-08T09:14:21;93064.31;;;11.52;53.43
10718;BME280;13513;42.700;23.124;2023-04-08T09:16:54;93057.14;;;11.98;51.67
10718;BME280;13513;42.700;23.124;2023-04-08T09:19:25;93060.94;;;12.09;52.10
10718;BME280;13513;42.700;23.124;2023-04-08T09:22:06;93063.42;;;11.92;51.24
10718;BME280;13513;42.700;23.124;2023-04-08T09:24:39;93056.41;;;12.39;51.03
10718;BME280;13513;42.700;23.124;2023-04-08T09:27:10;93052.72;;;13.26;49.50
10718;BME280;13513;42.700;23.124;2023-04-08T09:29:42;93051.69;;;14.61;47.43
10718;BME280;13513;42.700;23.124;2023-04-08T09:32:13;93053.73;;;15.19;44.03
10718;BME280;13513;42.700;23.124;2023-04-08T09:34:43;93042.52;;;15.29;43.91
10718;BME280;13513;42.700;23.124;2023-04-08T09:37:14;93041.74;;;15.16;45.03
10718;BME280;13513;42.700;23.124;2023-04-08T09:39:45;93033.72;;;15.92;42.88
10718;BME280;13513;42.700;23.124;2023-04-08T09:42:17;93043.63;;;15.16;44.79
10718;BME280;13513;42.700;23.124;2023-04-08T09:44:50;93044.54;;;14.51;45.31
10718;BME280;13513;42.700;23.124;2023-04-08T09:47:24;93043.98;;;14.64;45.90
10718;BME280;13513;42.700;23.124;2023-04-08T09:49:54;93041.60;;;14.28;46.45
10718;BME280;13513;42.700;23.124;2023-04-08T09:52:29;93043.20;;;14.36;45.60
10718;BME280;13513;42.700;23.124;2023-04-08T09:55:07;93042.56;;;13.77;47.26
10718;BME280;13513;42.700;23.124;2023-04-08T10:00:30;93026.59;;;13.62;48.56
10718;BME280;13513;42.700;23.124;2023-04-08T10:05:44;93021.36;;;13.08;49.84
10718;BME280;13513;42.700;23.124;2023-04-08T10:08:16;93018.70;;;12.27;50.82
10718;BME280;13513;42.700;23.124;2023-04-08T10:10:47;93026.17;;;12.35;51.99
10718;BME280;13513;42.700;23.124;2023-04-08T10:13:17;93021.33;;;12.61;51.41
10718;BME280;13513;42.700;23.124;2023-04-08T10:15:47;93018.00;;;11.76;54.41
10718;BME280;13513;42.700;23.124;2023-04-08T10:20:52;93008.77;;;12.07;52.60
10718;BME280;13513;42.700;23.124;2023-04-08T10:23:54;93000.23;;;12.03;54.88
10718;BME280;13513;42.700;23.124;2023-04-08T10:25:55;93008.25;;;11.79;54.56
10718;BME280;13513;42.700;23.124;2023-04-08T10:28:25;93008.27;;;11.81;56.07
10718;BME280;13513;42.700;23.124;2023-04-08T10:30:56;93002.00;;;11.63;55.02
10718;BME280;13513;42.700;23.124;2023-04-08T10:33:31;93000.69;;;11.66;55.46
10718;BME280;13513;42.700;23.124;2023-04-08T10:36:11;92999.03;;;11.12;55.96
10718;BME280;13513;42.700;23.124;2023-04-08T10:38:43;92998.09;;;10.77;56.82
10718;BME280;13513;42.700;23.124;2023-04-08T10:41:14;92990.64;;;11.17;57.05
10718;BME280;13513;42.700;23.124;2023-04-08T10:43:47;92989.95;;;11.27;53.87
10718;BME280;13513;42.700;23.124;2023-04-08T10:46:20;92985.95;;;11.00;55.12
10718;BME280;13513;42.700;23.124;2023-04-08T10:49:01;92996.33;;;10.26;57.39
10718;BME280;13513;42.700;23.124;2023-04-08T10:51:32;92989.77;;;10.47;60.16
10718;BME280;13513;42.700;23.124;2023-04-08T10:54:07;92994.27;;;10.11;60.16
10718;BME280;13513;42.700;23.124;2023-04-08T10:56:49;92990.91;;;10.54;60.68
10718;BME280;13513;42.700;23.124;2023-04-08T10:59:32;92985.48;;;10.82;59.05
10718;BME280;13513;42.700;23.124;2023-04-08T11:02:11;92979.72;;;11.09;59.90
10718;BME280;13513;42.700;23.124;2023-04-08T11:04:40;92976.86;;;11.92;56.23
10718;BME280;13513;42.700;23.124;2023-04-08T11:07:09;92972.17;;;12.02;55.86
10718;BME280;13513;42.700;23.124;2023-04-08T11:09:40;92974.73;;;11.60;55.64
10718;BME280;13513;42.700;23.124;2023-04-08T11:12:11;92970.40;;;10.82;56.85
10718;BME280;13513;42.700;23.124;2023-04-08T11:14:43;92970.85;;;10.55;60.66
10718;BME280;13513;42.700;23.124;2023-04-08T11:17:15;92969.86;;;10.40;60.39
10718;BME280;13513;42.700;23.124;2023-04-08T11:19:46;92969.11;;;10.44;58.18
10718;BME280;13513;42.700;23.124;2023-04-08T11:22:17;92966.92;;;10.58;60.22
10718;BME280;13513;42.700;23.124;2023-04-08T11:24:49;92951.45;;;10.66;61.79
10718;BME280;13513;42.700;23.124;2023-04-08T11:27:20;92955.47;;;11.43;61.70
10718;BME280;13513;42.700;23.124;2023-04-08T11:29:54;92946.42;;;11.63;58.02
10718;BME280;13513;42.700;23.124;2023-04-08T11:32:24;92956.03;;;11.45;57.32
10718;BME280;13513;42.700;23.124;2023-04-08T11:34:55;92952.16;;;11.02;59.29
10718;BME280;13513;42.700;23.124;2023-04-08T11:37:26;92954.64;;;11.14;57.96
10718;BME280;13513;42.700;23.124;2023-04-08T11:39:57;92953.59;;;11.15;58.09
10718;BME280;13513;42.700;23.124;2023-04-08T11:42:32;92948.50;;;11.08;59.95
10718;BME280;13513;42.700;23.124;2023-04-08T11:45:13;92951.94;;;11.06;58.46
10718;BME280;13513;42.700;23.124;2023-04-08T11:47:44;92953.84;;;10.68;59.91
10718;BME280;13513;42.700;23.124;2023-04-08T11:50:23;92951.70;;;10.46;61.08
10718;BME280;13513;42.700;23.124;2023-04-08T11:52:53;92956.13;;;10.40;62.05
10718;BME280;13513;42.700;23.124;2023-04-08T11:55:30;92955.09;;;10.41;62.47
10718;BME280;13513;42.700;23.124;2023-04-08T11:58:01;92951.84;;;10.56;61.87
10718;BME280;13513;42.700;23.124;2023-04-08T12:00:28;92948.51;;;10.63;60.31
10718;BME280;13513;42.700;23.124;2023-04-08T12:02:59;92945.63;;;10.64;61.48
10718;BME280;13513;42.700;23.124;2023-04-08T12:05:30;92948.17;;;10.81;59.05
10718;BME280;13513;42.700;23.124;2023-04-08T12:08:01;92948.66;;;10.97;58.52
10718;BME280;13513;42.700;23.124;2023-04-08T12:10:32;92951.88;;;11.04;58.99
10718;BME280;13513;42.700;23.124;2023-04-08T12:13:02;92950.78;;;11.00;61.39
10718;BME280;13513;42.700;23.124;2023-04-08T12:15:33;92949.16;;;11.20;62.49
10718;BME280;13513;42.700;23.124;2023-04-08T12:18:04;92945.44;;;11.19;66.21
10718;BME280;13513;42.700;23.124;2023-04-08T12:20:37;92944.13;;;10.95;64.98
10718;BME280;13513;42.700;23.124;2023-04-08T12:23:08;92939.20;;;11.03;64.09
10718;BME280;13513;42.700;23.124;2023-04-08T12:25:39;92940.39;;;11.17;66.22
10718;BME280;13513;42.700;23.124;2023-04-08T12:28:10;92936.45;;;11.46;68.80
10718;BME280;13513;42.700;23.124;2023-04-08T12:30:41;92936.81;;;11.86;60.82
10718;BME280;13513;42.700;23.124;2023-04-08T12:33:12;92929.44;;;12.28;55.78
10718;BME280;13513;42.700;23.124;2023-04-08T12:35:43;92934.72;;;12.25;54.43
10718;BME280;13513;42.700;23.124;2023-04-08T12:38:14;92935.19;;;12.64;51.44
10718;BME280;13513;42.700;23.124;2023-04-08T12:40:45;92933.58;;;13.19;56.87
10718;BME280;13513;42.700;23.124;2023-04-08T12:43:16;92932.33;;;14.07;54.24
10718;BME280;13513;42.700;23.124;2023-04-08T12:45:47;92931.45;;;14.76;50.34
10718;BME280;13513;42.700;23.124;2023-04-08T12:48:17;92926.52;;;15.16;48.08
10718;BME280;13513;42.700;23.124;2023-04-08T12:50:48;92932.05;;;15.27;45.62
10718;BME280;13513;42.700;23.124;2023-04-08T12:53:19;92933.66;;;14.39;45.95
10718;BME280;13513;42.700;23.124;2023-04-08T12:55:49;92936.08;;;14.33;46.09
10718;BME280;13513;42.700;23.124;2023-04-08T12:58:20;92937.41;;;14.13;45.59
10718;BME280;13513;42.700;23.124;2023-04-08T13:00:51;92929.14;;;13.60;46.62
10718;BME280;13513;42.700;23.124;2023-04-08T13:03:22;92926.72;;;13.31;46.72
10718;BME280;13513;42.700;23.124;2023-04-08T13:05:53;92926.69;;;12.57;48.62
10718;BME280;13513;42.700;23.124;2023-04-08T13:08:24;92920.13;;;12.20;49.79
10718;BME280;13513;42.700;23.124;2023-04-08T13:10:54;92910.77;;;12.07;49.85
10718;BME280;13513;42.700;23.124;2023-04-08T13:13:25;92917.42;;;12.15;51.82
10718;BME280;13513;42.700;23.124;2023-04-08T13:15:56;92908.66;;;12.12;50.58
10718;BME280;13513;42.700;23.124;2023-04-08T13:18:27;92911.78;;;12.04;52.47
10718;BME280;13513;42.700;23.124;2023-04-08T13:20:58;92919.09;;;11.87;54.69
10718;BME280;13513;42.700;23.124;2023-04-08T13:23:29;92911.60;;;12.13;54.81
10718;BME280;13513;42.700;23.124;2023-04-08T13:25:59;92913.52;;;12.23;55.75
10718;BME280;13513;42.700;23.124;2023-04-08T13:28:30;92914.78;;;12.15;55.13
10718;BME280;13513;42.700;23.124;2023-04-08T13:31:01;92922.37;;;12.01;57.50